createdAt,value
2023-05-15T00:02:15.732Z,21.00
2023-05-15T00:05:37.979Z,21.00
2023-05-15T00:09:00.310Z,21.00
2023-05-15T00:12:22.520Z,21.10
2023-05-15T00:15:44.864Z,21.00
2023-05-15T00:19:07.334Z,21.00
2023-05-15T00:22:29.731Z,21.00
2023-05-15T00:25:52.450Z,21.00
2023-05-15T00:29:14.704Z,21.00
2023-05-15T00:32:36.952Z,21.00
2023-05-15T00:35:59.168Z,21.00
2023-05-15T00:39:21.460Z,21.00
2023-05-15T00:42:44.056Z,20.90
2023-05-15T00:46:07.583Z,21.00
2023-05-15T00:49:30.251Z,20.90
2023-05-15T00:52:53.610Z,21.00
2023-05-15T00:56:17.406Z,21.00
2023-05-15T00:59:42.301Z,20.90
2023-05-15T01:03:06.051Z,21.00
2023-05-15T01:06:30.815Z,21.00
2023-05-15T01:09:56.291Z,21.00
2023-05-15T01:13:21.770Z,20.90
2023-05-15T01:16:43.977Z,20.90
2023-05-15T01:20:10.366Z,20.90
2023-05-15T01:23:52.222Z,20.90
2023-05-15T01:27:30.396Z,20.90
2023-05-15T01:30:56.175Z,20.90
2023-05-15T01:34:23.273Z,20.90
2023-05-15T01:37:50.101Z,20.90
2023-05-15T01:41:28.261Z,20.90
2023-05-15T01:44:55.237Z,20.90
2023-05-15T01:48:19.400Z,20.90
2023-05-15T01:51:44.421Z,20.90
2023-05-15T01:55:08.737Z,20.90
2023-05-15T01:58:32.343Z,20.90
2023-05-15T02:01:55.884Z,20.90
2023-05-15T02:05:19.970Z,20.90
2023-05-15T02:08:43.677Z,20.90
2023-05-15T02:12:06.672Z,20.90
2023-05-15T02:15:30.623Z,20.90
2023-05-15T02:18:53.051Z,20.90
2023-05-15T02:22:15.602Z,20.90
2023-05-15T02:26:00.687Z,20.80
2023-05-15T02:29:55.403Z,20.90
2023-05-15T02:33:29.458Z,20.90
2023-05-15T02:36:53.221Z,20.90
2023-05-15T02:40:16.441Z,20.90
2023-05-15T02:43:40.329Z,20.90
2023-05-15T02:47:04.702Z,20.80
2023-05-15T02:50:29.033Z,20.90
2023-05-15T02:53:52.390Z,20.80
2023-05-15T02:57:14.612Z,20.80
2023-05-15T03:00:36.830Z,20.90
2023-05-15T03:03:59.099Z,20.80
2023-05-15T03:07:21.430Z,20.80
2023-05-15T03:10:44.565Z,20.80
2023-05-15T03:14:06.863Z,20.80
2023-05-15T03:17:29.255Z,20.90
2023-05-15T03:20:52.835Z,20.80
2023-05-15T03:24:15.154Z,20.80
2023-05-15T03:27:38.017Z,20.80
2023-05-15T03:31:00.350Z,20.80
2023-05-15T03:34:22.610Z,20.80
2023-05-15T03:37:44.912Z,20.80
2023-05-15T03:41:07.151Z,20.80
2023-05-15T03:44:29.672Z,20.80
2023-05-15T03:47:53.058Z,20.80
2023-05-15T03:51:15.540Z,20.80
2023-05-15T03:54:37.883Z,20.80
2023-05-15T03:58:00.431Z,20.80
2023-05-15T04:01:23.122Z,20.80
2023-05-15T04:04:45.457Z,20.80
2023-05-15T04:08:09.680Z,20.80
2023-05-15T04:11:31.958Z,20.80
2023-05-15T04:14:54.201Z,20.80
2023-05-15T04:18:16.526Z,20.80
2023-05-15T04:21:38.779Z,20.80
2023-05-15T04:25:01.287Z,20.80
2023-05-15T04:28:23.601Z,20.80
2023-05-15T04:31:45.832Z,20.70
2023-05-15T04:35:10.539Z,20.70
2023-05-15T04:38:33.271Z,20.80
2023-05-15T04:41:55.752Z,20.70
2023-05-15T04:45:18.291Z,20.70
2023-05-15T04:48:40.696Z,20.70
2023-05-15T04:52:03.086Z,20.70
2023-05-15T04:55:25.516Z,20.70
2023-05-15T04:58:47.912Z,20.70
2023-05-15T05:02:11.126Z,20.70
2023-05-15T05:05:33.447Z,20.70
2023-05-15T05:08:55.655Z,20.70
2023-05-15T05:12:17.902Z,20.80
2023-05-15T05:15:40.152Z,20.80
2023-05-15T05:19:02.661Z,20.80
2023-05-15T05:22:24.945Z,20.80
2023-05-15T05:25:47.158Z,20.80
2023-05-15T05:29:09.479Z,20.80
2023-05-15T05:32:31.977Z,20.80
2023-05-15T05:35:55.669Z,20.80
2023-05-15T05:39:18.521Z,20.80
2023-05-15T05:42:41.355Z,20.80
2023-05-15T05:46:03.601Z,20.80
2023-05-15T05:49:25.860Z,20.90
2023-05-15T05:52:48.470Z,20.90
2023-05-15T05:56:10.796Z,20.90
2023-05-15T05:59:33.136Z,20.90
2023-05-15T06:02:59.828Z,20.80
2023-05-15T06:06:22.460Z,20.70
2023-05-15T06:09:45.968Z,20.80
2023-05-15T06:13:08.319Z,20.90
2023-05-15T06:16:30.996Z,20.90
2023-05-15T06:19:53.893Z,20.90
2023-05-15T06:23:16.134Z,20.90
2023-05-15T06:26:38.495Z,21.00
2023-05-15T06:30:00.691Z,21.00
2023-05-15T06:33:22.928Z,21.00
2023-05-15T06:36:45.150Z,21.00
2023-05-15T06:40:08.103Z,21.00
2023-05-15T06:43:30.309Z,21.00
2023-05-15T06:46:52.863Z,20.90
2023-05-15T06:50:15.053Z,20.90
2023-05-15T06:53:37.261Z,20.90
2023-05-15T06:56:59.596Z,20.90
2023-05-15T07:00:21.961Z,20.80
2023-05-15T07:03:44.494Z,20.90
2023-05-15T07:07:07.234Z,20.90
2023-05-15T07:10:29.451Z,20.90
2023-05-15T07:13:53.051Z,21.00
2023-05-15T07:17:15.312Z,21.00
2023-05-15T07:20:38.005Z,21.00
2023-05-15T07:24:00.705Z,21.00
2023-05-15T07:27:22.959Z,21.00
2023-05-15T07:30:45.333Z,21.00
2023-05-15T07:34:07.550Z,21.00
2023-05-15T07:37:29.923Z,21.00
2023-05-15T07:40:52.158Z,21.00
2023-05-15T07:44:14.437Z,21.00
2023-05-15T07:47:36.871Z,21.00
2023-05-15T07:50:59.252Z,21.00
2023-05-15T07:54:21.808Z,21.10
2023-05-15T07:57:44.268Z,21.10
2023-05-15T08:01:06.761Z,21.10
2023-05-15T08:04:29.002Z,21.10
2023-05-15T08:07:51.538Z,21.10
2023-05-15T08:11:13.967Z,21.10
2023-05-15T08:14:36.455Z,21.10
2023-05-15T08:17:58.827Z,21.10
2023-05-15T08:21:21.179Z,21.10
2023-05-15T08:24:43.525Z,21.10
2023-05-15T08:28:06.126Z,21.10
2023-05-15T08:31:28.596Z,21.10
2023-05-15T08:34:50.902Z,21.10
2023-05-15T08:38:13.156Z,21.10
2023-05-15T08:41:52.960Z,21.10
2023-05-15T08:45:15.900Z,21.10
2023-05-15T08:48:41.745Z,21.10
2023-05-15T08:52:05.016Z,21.10
2023-05-15T08:55:29.005Z,21.10
2023-05-15T08:58:51.654Z,21.10
2023-05-15T09:02:14.633Z,21.10
2023-05-15T09:05:38.827Z,21.10
2023-05-15T09:09:05.223Z,21.10
2023-05-15T09:12:27.524Z,21.10
2023-05-15T09:15:50.765Z,21.10
2023-05-15T09:19:15.391Z,21.10
2023-05-15T09:22:37.816Z,21.10
2023-05-15T09:26:00.328Z,21.10
2023-05-15T09:29:22.570Z,21.20
2023-05-15T09:32:44.888Z,21.20
2023-05-15T09:36:08.846Z,21.00
2023-05-15T09:39:31.246Z,20.90
2023-05-15T09:42:53.566Z,20.90
2023-05-15T09:46:17.441Z,21.00
2023-05-15T09:49:40.151Z,21.00
2023-05-15T09:53:03.039Z,21.10
2023-05-15T09:56:26.203Z,21.10
2023-05-15T09:59:49.129Z,21.10
2023-05-15T10:03:12.193Z,21.20
2023-05-15T10:06:40.084Z,21.20
2023-05-15T10:10:04.852Z,21.20
2023-05-15T10:13:28.996Z,21.20
2023-05-15T10:16:51.291Z,21.20
2023-05-15T10:20:15.584Z,21.20
2023-05-15T10:23:41.244Z,21.20
2023-05-15T10:27:04.250Z,21.20
2023-05-15T10:30:28.178Z,21.20
2023-05-15T10:33:51.906Z,21.30
2023-05-15T10:37:15.744Z,21.30
2023-05-15T10:40:39.509Z,21.40
2023-05-15T10:44:02.849Z,21.40
2023-05-15T10:47:25.498Z,21.40
2023-05-15T10:50:49.082Z,21.40
2023-05-15T10:54:11.413Z,21.50
2023-05-15T10:57:33.870Z,21.40
2023-05-15T11:00:56.806Z,21.40
2023-05-15T11:04:22.696Z,21.30
2023-05-15T11:07:49.637Z,21.30
2023-05-15T11:11:50.801Z,21.30
2023-05-15T11:15:13.326Z,21.40
2023-05-15T11:18:37.848Z,21.40
2023-05-15T11:22:13.570Z,21.30
2023-05-15T11:25:36.933Z,21.30
2023-05-15T11:29:18.132Z,21.30
2023-05-15T11:32:55.734Z,21.30
2023-05-15T11:36:24.335Z,21.30
2023-05-15T11:39:47.568Z,21.30
2023-05-15T11:43:26.060Z,21.30
2023-05-15T11:46:50.316Z,21.30
2023-05-15T11:50:12.905Z,21.30
2023-05-15T11:53:35.958Z,21.30
2023-05-15T11:56:58.946Z,21.30
2023-05-15T12:00:21.982Z,21.30
2023-05-15T12:03:48.457Z,21.30
2023-05-15T12:07:12.125Z,21.30
2023-05-15T12:10:39.735Z,21.20
2023-05-15T12:14:02.027Z,21.20
2023-05-15T12:17:24.830Z,21.30
2023-05-15T12:20:47.193Z,21.20
2023-05-15T12:24:11.912Z,21.20
2023-05-15T12:27:36.457Z,21.20
2023-05-15T12:30:59.861Z,21.20
2023-05-15T12:34:22.377Z,21.20
2023-05-15T12:37:45.724Z,21.20
2023-05-15T12:41:11.774Z,21.20
2023-05-15T12:44:34.006Z,21.20
2023-05-15T12:47:59.053Z,21.20
2023-05-15T12:51:22.339Z,21.20
2023-05-15T12:54:44.937Z,21.20
2023-05-15T12:58:08.627Z,21.20
2023-05-15T13:01:30.924Z,21.30
2023-05-15T13:04:53.769Z,21.30
2023-05-15T13:08:19.200Z,21.30
2023-05-15T13:11:45.190Z,21.30
2023-05-15T13:15:08.263Z,21.30
2023-05-15T13:18:30.754Z,21.20
2023-05-15T13:21:52.972Z,21.20
2023-05-15T13:25:18.919Z,21.20
2023-05-15T13:28:41.205Z,21.20
2023-05-15T13:32:03.618Z,21.20
2023-05-15T13:35:25.880Z,21.20
2023-05-15T13:38:48.158Z,21.20
2023-05-15T13:42:10.468Z,21.20
2023-05-15T13:45:32.795Z,21.20
2023-05-15T13:48:55.045Z,21.20
2023-05-15T13:52:17.305Z,21.20
2023-05-15T13:55:39.604Z,21.10
2023-05-15T13:59:01.928Z,21.20
2023-05-15T14:02:27.064Z,21.10
2023-05-15T14:05:49.453Z,21.10
2023-05-15T14:09:11.745Z,21.10
2023-05-15T14:12:34.095Z,21.10
2023-05-15T14:15:56.583Z,21.10
2023-05-15T14:19:19.078Z,21.10
2023-05-15T14:22:41.448Z,21.10
2023-05-15T14:26:03.814Z,21.10
2023-05-15T14:29:26.058Z,21.10
2023-05-15T14:32:48.348Z,21.10
2023-05-15T14:36:10.630Z,21.10
2023-05-15T14:39:32.965Z,21.20
2023-05-15T14:42:55.339Z,21.10
2023-05-15T14:46:17.630Z,21.10
2023-05-15T14:49:40.662Z,21.20
2023-05-15T14:53:02.920Z,21.20
2023-05-15T14:56:25.927Z,21.20
2023-05-15T14:59:48.204Z,21.20
2023-05-15T15:03:10.952Z,21.20
2023-05-15T15:06:33.279Z,21.20
2023-05-15T15:09:55.556Z,21.30
2023-05-15T15:13:17.882Z,21.30
2023-05-15T15:16:40.400Z,21.30
2023-05-15T15:20:05.237Z,21.30
2023-05-15T15:23:27.578Z,21.30
2023-05-15T15:26:49.819Z,21.30
2023-05-15T15:30:12.977Z,21.40
2023-05-15T15:33:35.367Z,21.40
2023-05-15T15:36:57.590Z,21.40
2023-05-15T15:40:20.524Z,21.30
2023-05-15T15:43:42.838Z,21.40
2023-05-15T15:47:05.119Z,21.30
2023-05-15T15:50:27.839Z,21.40
2023-05-15T15:53:50.297Z,21.30
2023-05-15T15:57:16.368Z,21.40
2023-05-15T16:00:38.660Z,21.30
2023-05-15T16:04:01.088Z,21.30
2023-05-15T16:07:23.391Z,21.30
2023-05-15T16:10:45.948Z,21.30
2023-05-15T16:14:08.288Z,21.30
2023-05-15T16:17:30.607Z,21.30
2023-05-15T16:20:52.883Z,21.30
2023-05-15T16:24:15.507Z,21.30
2023-05-15T16:27:37.806Z,21.30
2023-05-15T16:31:00.919Z,21.30
2023-05-15T16:34:23.304Z,21.30
2023-05-15T16:37:45.637Z,21.30
2023-05-15T16:41:07.889Z,21.30
2023-05-15T16:44:30.138Z,21.30
2023-05-15T16:47:52.407Z,21.40
2023-05-15T16:51:14.742Z,21.30
2023-05-15T16:54:37.061Z,21.30
2023-05-15T16:57:59.375Z,21.30
2023-05-15T17:01:21.889Z,21.30
2023-05-15T17:04:44.153Z,21.40
2023-05-15T17:08:06.450Z,21.40
2023-05-15T17:11:28.714Z,21.40
2023-05-15T17:14:51.056Z,21.40
2023-05-15T17:18:13.292Z,21.40
2023-05-15T17:21:37.293Z,21.40
2023-05-15T17:24:59.603Z,21.30
2023-05-15T17:28:21.875Z,21.40
2023-05-15T17:31:44.354Z,21.30
2023-05-15T17:35:08.140Z,21.30
2023-05-15T17:38:30.491Z,21.30
2023-05-15T17:41:53.159Z,21.30
2023-05-15T17:45:15.565Z,21.30
2023-05-15T17:48:37.874Z,21.30
2023-05-15T17:52:00.142Z,21.30
2023-05-15T17:55:22.550Z,21.30
2023-05-15T17:58:44.902Z,21.30
2023-05-15T18:02:07.422Z,21.30
2023-05-15T18:05:29.730Z,21.30
2023-05-15T18:08:51.957Z,21.30
2023-05-15T18:12:14.246Z,21.30
2023-05-15T18:15:36.513Z,21.30
2023-05-15T18:18:59.478Z,21.30
2023-05-15T18:22:21.813Z,21.30
2023-05-15T18:25:44.519Z,21.30
2023-05-15T18:29:06.754Z,21.20
2023-05-15T18:32:28.984Z,21.30
2023-05-15T18:35:52.286Z,21.30
2023-05-15T18:39:15.704Z,21.30
2023-05-15T18:42:37.996Z,21.30
2023-05-15T18:46:00.353Z,21.30
2023-05-15T18:49:22.634Z,21.30
2023-05-15T18:52:45.082Z,21.40
2023-05-15T18:56:07.307Z,21.40
2023-05-15T18:59:29.702Z,21.40
2023-05-15T19:02:52.013Z,21.40
2023-05-15T19:06:19.714Z,21.40
2023-05-15T19:09:42.065Z,21.40
2023-05-15T19:13:04.564Z,21.50
2023-05-15T19:16:28.578Z,21.50
2023-05-15T19:19:54.371Z,21.50
2023-05-15T19:23:16.584Z,21.50
2023-05-15T19:26:39.020Z,21.50
2023-05-15T19:30:02.125Z,21.40
2023-05-15T19:33:24.723Z,21.40
2023-05-15T19:36:47.392Z,21.40
2023-05-15T19:40:09.992Z,21.40
2023-05-15T19:43:35.948Z,21.30
2023-05-15T19:46:58.224Z,21.30
2023-05-15T19:50:20.501Z,21.30
2023-05-15T19:53:43.739Z,21.30
2023-05-15T19:57:06.067Z,21.30
2023-05-15T20:00:28.598Z,21.30
2023-05-15T20:03:51.072Z,21.30
2023-05-15T20:07:13.399Z,21.30
2023-05-15T20:10:35.752Z,21.20
2023-05-15T20:13:58.070Z,21.20
2023-05-15T20:17:20.590Z,21.20
2023-05-15T20:20:43.058Z,21.20
2023-05-15T20:24:06.042Z,21.20
2023-05-15T20:27:28.370Z,21.20
2023-05-15T20:30:52.292Z,21.20
2023-05-15T20:34:15.951Z,21.10
2023-05-15T20:37:40.977Z,21.10
2023-05-15T20:41:03.920Z,21.10
2023-05-15T20:44:26.171Z,21.00
2023-05-15T20:47:49.380Z,21.00
2023-05-15T20:51:11.662Z,21.00
2023-05-15T20:54:33.985Z,21.00
2023-05-15T20:57:56.292Z,21.00
2023-05-15T21:01:18.604Z,21.00
2023-05-15T21:04:40.849Z,21.00
2023-05-15T21:08:03.423Z,21.00
2023-05-15T21:11:25.944Z,21.00
2023-05-15T21:14:48.226Z,21.00
2023-05-15T21:18:10.507Z,21.00
2023-05-15T21:21:32.818Z,20.90
2023-05-15T21:24:55.003Z,20.90
2023-05-15T21:28:17.454Z,20.90
2023-05-15T21:31:39.740Z,20.90
2023-05-15T21:35:02.085Z,20.90
2023-05-15T21:38:24.348Z,20.90
2023-05-15T21:41:46.835Z,20.90
2023-05-15T21:45:09.308Z,20.90
2023-05-15T21:48:31.646Z,20.90
2023-05-15T21:51:53.896Z,20.90
2023-05-15T21:55:16.426Z,20.90
2023-05-15T21:58:38.633Z,20.80
2023-05-15T22:02:01.062Z,20.80
2023-05-15T22:05:23.351Z,20.80
2023-05-15T22:08:45.553Z,20.80
2023-05-15T22:12:08.224Z,20.80
2023-05-15T22:15:30.580Z,20.80
2023-05-15T22:18:53.851Z,20.70
2023-05-15T22:22:16.260Z,20.80
2023-05-15T22:25:38.419Z,20.80
2023-05-15T22:29:00.670Z,20.80
2023-05-15T22:32:23.129Z,20.70
2023-05-15T22:35:45.859Z,20.70
2023-05-15T22:39:08.206Z,20.70
2023-05-15T22:42:30.426Z,20.80
2023-05-15T22:45:52.794Z,20.80
2023-05-15T22:49:19.267Z,20.70
2023-05-15T22:52:41.673Z,20.70
2023-05-15T22:56:03.979Z,20.70
2023-05-15T22:59:26.530Z,20.70
2023-05-15T23:02:48.831Z,20.70
2023-05-15T23:06:17.016Z,20.70
2023-05-15T23:09:39.370Z,20.70
2023-05-15T23:13:01.714Z,20.60
2023-05-15T23:16:25.622Z,20.70
2023-05-15T23:19:48.149Z,20.70
2023-05-15T23:23:10.484Z,20.60
2023-05-15T23:26:32.824Z,20.60
2023-05-15T23:29:55.042Z,20.60
2023-05-15T23:33:17.270Z,20.60
2023-05-15T23:36:39.555Z,20.60
2023-05-15T23:40:02.022Z,20.60
2023-05-15T23:43:24.331Z,20.60
2023-05-15T23:46:46.716Z,20.60
2023-05-15T23:50:09.140Z,20.60
2023-05-15T23:53:31.652Z,20.50
2023-05-15T23:56:53.891Z,20.50
